Time;durP1;ratioP1;P1;durP2;ratioP2;P2;SDS_P1;SDS_P2;PMS_P1;PMS_P2;Temp;Humidity;BMP_temperature;BMP_pressure;BME280_temperature;BME280_humidity;BME280_pressure;Samples;Min_cycle;Max_cycle;Signal;HPM_P1;HPM_P2
2022/07/24 00:02:09;;;;;;;19.07;14.38;;;;;;;;;;4519401;79;28501;-84
2022/07/24 00:08:10;;;;;;;18.87;14.18;;;;;;;;;;4520321;79;28471;-85
2022/07/24 00:14:11;;;;;;;22.80;16.07;;;;;;;;;;4522618;79;28549;-83
2022/07/24 00:20:12;;;;;;;22.58;16.62;;;;;;;;;;4522703;79;28570;-83
2022/07/24 00:26:13;;;;;;;22.48;17.23;;;;;;;;;;4522997;79;28514;-85
2022/07/24 00:32:14;;;;;;;25.50;17.65;;;;;;;;;;4516486;79;28476;-85
2022/07/24 00:38:15;;;;;;;22.70;17.02;;;;;;;;;;4526631;79;28518;-84
2022/07/24 00:44:16;;;;;;;22.70;17.45;;;;;;;;;;4525953;79;28553;-84
2022/07/24 00:50:17;;;;;;;23.67;18.35;;;;;;;;;;4352133;82;28522;-85
2022/07/24 00:56:18;;;;;;;22.20;17.35;;;;;;;;;;4352441;82;28498;-84
2022/07/24 01:02:19;;;;;;;23.38;17.32;;;;;;;;;;4304379;82;28500;-84
2022/07/24 01:08:20;;;;;;;22.50;18.30;;;;;;;;;;4313519;82;28510;-84
2022/07/24 01:14:22;;;;;;;24.37;19.10;;;;;;;;;;4385285;79;28556;-84
2022/07/24 01:20:23;;;;;;;27.50;19.95;;;;;;;;;;4396224;80;28473;-84
2022/07/24 01:26:24;;;;;;;26.40;19.67;;;;;;;;;;4369807;80;28516;-84
2022/07/24 01:32:25;;;;;;;29.67;21.65;;;;;;;;;;4387386;80;28566;-84
2022/07/24 01:38:26;;;;;;;29.20;21.68;;;;;;;;;;4400030;80;28529;-81
2022/07/24 01:44:27;;;;;;;31.27;22.55;;;;;;;;;;4339534;80;28523;-83
2022/07/24 01:50:28;;;;;;;29.63;22.05;;;;;;;;;;4314154;82;28520;-83
2022/07/24 01:56:29;;;;;;;30.32;23.02;;;;;;;;;;4313725;81;28561;-82
2022/07/24 02:02:30;;;;;;;31.15;23.45;;;;;;;;;;4354987;81;28555;-82
2022/07/24 02:08:31;;;;;;;30.68;22.90;;;;;;;;;;4386618;80;28553;-84
2022/07/24 02:14:32;;;;;;;33.60;24.15;;;;;;;;;;4360189;81;28500;-83
2022/07/24 02:20:33;;;;;;;32.98;23.42;;;;;;;;;;4359032;82;28523;-84
2022/07/24 02:26:34;;;;;;;31.37;24.12;;;;;;;;;;4359127;82;28478;-84
2022/07/24 02:32:35;;;;;;;28.00;22.05;;;;;;;;;;4359180;82;28537;-84
2022/07/24 02:38:36;;;;;;;26.80;21.62;;;;;;;;;;4359551;82;28527;-84
2022/07/24 02:44:36;;;;;;;27.52;21.42;;;;;;;;;;4359705;82;28533;-85
2022/07/24 02:50:38;;;;;;;24.87;20.37;;;;;;;;;;4360738;82;28509;-84
2022/07/24 02:56:39;;;;;;;25.45;19.85;;;;;;;;;;4333713;82;28489;-85
2022/07/24 03:02:40;;;;;;;22.15;17.87;;;;;;;;;;4359241;82;28874;-84
2022/07/24 03:08:41;;;;;;;23.02;18.45;;;;;;;;;;4361594;82;28549;-84
2022/07/24 03:14:42;;;;;;;22.35;17.17;;;;;;;;;;4380135;81;28496;-83
2022/07/24 03:20:43;;;;;;;19.85;15.32;;;;;;;;;;4382687;81;28476;-84
2022/07/24 03:26:44;;;;;;;17.77;15.58;;;;;;;;;;4380950;81;28573;-84
2022/07/24 03:32:45;;;;;;;20.23;15.53;;;;;;;;;;4381455;81;28517;-84
2022/07/24 03:38:46;;;;;;;18.85;15.32;;;;;;;;;;4381572;81;28516;-84
2022/07/24 03:44:47;;;;;;;19.20;14.90;;;;;;;;;;4381721;81;28485;-84
2022/07/24 03:50:48;;;;;;;18.80;15.38;;;;;;;;;;4387578;80;28502;-84
2022/07/24 03:56:50;;;;;;;17.52;14.43;;;;;;;;;;4415486;80;28561;-83
2022/07/24 04:02:50;;;;;;;16.52;13.18;;;;;;;;;;4404851;80;28584;-85
2022/07/24 04:08:52;;;;;;;18.50;13.60;;;;;;;;;;4319311;80;28500;-83
2022/07/24 04:14:53;;;;;;;14.30;11.63;;;;;;;;;;4375917;81;28477;-83
2022/07/24 04:20:54;;;;;;;13.60;11.08;;;;;;;;;;4398816;80;28462;-82
2022/07/24 04:26:55;;;;;;;14.30;10.43;;;;;;;;;;4379356;80;28491;-84
2022/07/24 04:32:56;;;;;;;14.78;9.75;;;;;;;;;;4405428;80;28509;-83
2022/07/24 04:38:57;;;;;;;13.00;9.90;;;;;;;;;;4381572;81;28505;-83
2022/07/24 04:44:58;;;;;;;14.07;9.78;;;;;;;;;;4340481;77;28420;-83
2022/07/24 04:50:58;;;;;;;11.00;8.83;;;;;;;;;;4310586;77;28567;-81
2022/07/24 04:56:59;;;;;;;14.13;9.80;;;;;;;;;;4349543;80;28493;-87
2022/07/24 05:03:03;;;;;;;11.78;9.35;;;;;;;;;;4370910;80;28521;-89
2022/07/24 05:09:05;;;;;;;12.63;8.95;;;;;;;;;;4382634;81;28486;-89
2022/07/24 05:15:06;;;;;;;12.05;8.83;;;;;;;;;;4361841;81;28786;-89
2022/07/24 05:21:07;;;;;;;10.88;9.03;;;;;;;;;;4360141;82;28485;-93
2022/07/24 05:27:08;;;;;;;10.15;8.33;;;;;;;;;;4359772;81;28559;-89
2022/07/24 05:33:09;;;;;;;15.25;9.03;;;;;;;;;;4359243;80;28470;-89
2022/07/24 05:39:10;;;;;;;9.70;7.72;;;;;;;;;;4351093;82;28469;-89
2022/07/24 05:45:11;;;;;;;10.98;7.97;;;;;;;;;;4287630;80;28537;-89
2022/07/24 05:51:16;;;;;;;12.40;8.03;;;;;;;;;;4326714;80;28493;-90
2022/07/24 05:57:17;;;;;;;9.93;7.72;;;;;;;;;;4357430;82;28512;-89
2022/07/24 06:03:18;;;;;;;11.63;7.65;;;;;;;;;;4348693;82;28462;-90
2022/07/24 06:09:19;;;;;;;8.60;7.28;;;;;;;;;;4353797;80;28517;-81
2022/07/24 06:15:20;;;;;;;9.25;7.90;;;;;;;;;;4345925;80;28495;-81
2022/07/24 06:21:21;;;;;;;9.50;6.70;;;;;;;;;;4359450;80;28561;-82
2022/07/24 06:27:22;;;;;;;6.58;5.40;;;;;;;;;;4360957;80;28556;-80
2022/07/24 06:33:23;;;;;;;9.10;5.80;;;;;;;;;;4353809;80;28566;-79
2022/07/24 06:39:24;;;;;;;7.67;4.87;;;;;;;;;;4365332;80;28564;-84
2022/07/24 06:45:25;;;;;;;7.28;5.25;;;;;;;;;;4348045;80;28657;-83
2022/07/24 06:51:26;;;;;;;7.10;4.75;;;;;;;;;;4366972;80;28572;-85
2022/07/24 06:57:27;;;;;;;6.05;4.17;;;;;;;;;;4353287;80;28763;-83
2022/07/24 07:03:28;;;;;;;5.03;3.27;;;;;;;;;;4365257;80;28567;-81
2022/07/24 07:09:35;;;;;;;4.17;3.30;;;;;;;;;;4355289;80;28517;-81
2022/07/24 07:15:44;;;;;;;4.12;3.15;;;;;;;;;;4336778;80;28522;-81
2022/07/24 07:21:44;;;;;;;4.55;3.55;;;;;;;;;;4327716;80;28535;-83
2022/07/24 07:27:52;;;;;;;6.55;3.33;;;;;;;;;;4349875;80;28488;-80
2022/07/24 07:33:53;;;;;;;5.65;3.70;;;;;;;;;;4327911;80;28496;-81
2022/07/24 07:39:54;;;;;;;4.42;3.02;;;;;;;;;;4338172;80;28504;-82
2022/07/24 07:46:03;;;;;;;3.80;2.85;;;;;;;;;;4341101;80;28474;-82
2022/07/24 07:52:04;;;;;;;8.05;3.85;;;;;;;;;;4342445;80;28529;-80
2022/07/24 07:58:05;;;;;;;3.90;3.08;;;;;;;;;;4331101;80;28590;-78
2022/07/24 08:04:06;;;;;;;3.92;2.77;;;;;;;;;;4330811;80;28499;-79
2022/07/24 08:10:07;;;;;;;4.85;3.10;;;;;;;;;;4335101;80;28567;-79
2022/07/24 08:16:08;;;;;;;4.90;2.83;;;;;;;;;;4356534;80;28550;-79
2022/07/24 08:22:09;;;;;;;6.25;3.08;;;;;;;;;;4357146;80;28519;-80
2022/07/24 08:28:09;;;;;;;3.17;2.75;;;;;;;;;;4364819;80;28520;-78
2022/07/24 08:34:10;;;;;;;5.15;3.00;;;;;;;;;;4369893;80;28519;-79
2022/07/24 08:40:17;;;;;;;4.85;3.10;;;;;;;;;;4370456;80;28477;-79
2022/07/24 08:46:17;;;;;;;;;;;;;;;;;;4367870;80;28531;-79
2022/07/24 08:52:24;;;;;;;;;;;;;;;;;;4373432;80;20203;-78
2022/07/24 08:58:32;;;;;;;4.80;3.17;;;;;;;;;;4358932;80;20267;-80
2022/07/24 09:11:43;;;;;;;5.62;3.95;;;;;;;;;;4367494;80;28543;-80
2022/07/24 09:17:55;;;;;;;5.30;3.92;;;;;;;;;;4366088;80;28648;-79
2022/07/24 09:24:01;;;;;;;6.10;4.03;;;;;;;;;;4371596;80;28501;-78
2022/07/24 09:29:59;;;;;;;5.47;4.35;;;;;;;;;;4375478;80;28487;-79
2022/07/24 09:36:02;;;;;;;4.35;3.70;;;;;;;;;;4369199;80;28515;-78
2022/07/24 09:42:05;;;;;;;7.92;4.45;;;;;;;;;;4366843;80;28540;-79
2022/07/24 09:48:11;;;;;;;6.10;3.92;;;;;;;;;;4365079;80;28494;-80
2022/07/24 09:54:14;;;;;;;5.00;4.10;;;;;;;;;;4359917;80;28576;-79
2022/07/24 10:00:16;;;;;;;5.67;4.45;;;;;;;;;;4352439;80;28501;-79
2022/07/24 10:06:27;;;;;;;6.17;4.55;;;;;;;;;;4396117;79;28528;-78
2022/07/24 10:12:30;;;;;;;5.12;4.45;;;;;;;;;;4372641;78;28537;-79
2022/07/24 10:18:32;;;;;;;5.67;4.60;;;;;;;;;;4354764;80;28579;-79
2022/07/24 10:24:35;;;;;;;5.17;4.62;;;;;;;;;;4326556;80;28562;-79
2022/07/24 10:30:36;;;;;;;5.08;4.58;;;;;;;;;;4347244;80;28491;-77
2022/07/24 10:36:42;;;;;;;5.10;4.55;;;;;;;;;;4334658;80;28539;-78
2022/07/24 10:42:43;;;;;;;;;;;;;;;;;;4328214;80;28488;-80
2022/07/24 10:48:44;;;;;;;5.00;4.50;;;;;;;;;;4350712;80;20228;-81
2022/07/24 10:54:44;;;;;;;6.22;5.47;;;;;;;;;;4336022;80;28897;-81
2022/07/24 11:00:49;;;;;;;6.10;5.12;;;;;;;;;;4340488;80;28545;-81
2022/07/24 11:06:59;;;;;;;5.25;4.58;;;;;;;;;;4410006;79;28545;-81
2022/07/24 11:13:01;;;;;;;4.55;4.15;;;;;;;;;;4412462;79;28667;-82
2022/07/24 11:19:04;;;;;;;5.25;4.67;;;;;;;;;;4423706;79;28505;-83
2022/07/24 11:25:08;;;;;;;4.45;3.72;;;;;;;;;;4423126;79;28455;-81
2022/07/24 11:31:10;;;;;;;4.58;3.77;;;;;;;;;;4343773;80;28515;-81
2022/07/24 11:37:13;;;;;;;5.47;3.75;;;;;;;;;;4370065;80;28566;-82
2022/07/24 11:43:14;;;;;;;4.85;3.50;;;;;;;;;;4411996;79;28473;-81
2022/07/24 11:49:21;;;;;;;4.10;3.70;;;;;;;;;;4409554;79;28572;-86
2022/07/24 11:55:31;;;;;;;5.08;3.77;;;;;;;;;;4312359;80;28454;-82
2022/07/24 12:01:32;;;;;;;4.97;4.25;;;;;;;;;;4362542;80;28489;-80
2022/07/24 12:07:33;;;;;;;5.35;3.80;;;;;;;;;;4384479;80;28505;-82
2022/07/24 12:13:37;;;;;;;6.37;4.15;;;;;;;;;;4365220;79;28582;-83
2022/07/24 12:26:50;;;;;;;5.45;4.42;;;;;;;;;;4345796;79;28552;-86
2022/07/24 12:32:55;;;;;;;5.95;4.45;;;;;;;;;;4363333;79;28552;-84
2022/07/24 12:38:57;;;;;;;5.40;4.50;;;;;;;;;;4353680;79;28458;-82
2022/07/24 12:45:08;;;;;;;4.15;3.75;;;;;;;;;;4384063;79;28513;-83
2022/07/24 12:51:12;;;;;;;8.30;4.87;;;;;;;;;;4380362;79;28482;-83
2022/07/24 12:57:22;;;;;;;4.78;4.28;;;;;;;;;;4370775;79;28581;-82
2022/07/24 13:03:26;;;;;;;5.12;4.47;;;;;;;;;;4370360;79;28588;-85
2022/07/24 13:09:33;;;;;;;5.35;4.17;;;;;;;;;;4360669;79;28523;-84
2022/07/24 13:15:34;;;;;;;9.30;6.80;;;;;;;;;;4358111;79;28485;-81
2022/07/24 13:21:36;;;;;;;5.45;3.98;;;;;;;;;;4352766;80;28518;-82
2022/07/24 13:27:36;;;;;;;5.00;3.98;;;;;;;;;;4315575;80;28478;-83
2022/07/24 13:33:44;;;;;;;5.72;4.03;;;;;;;;;;4353738;80;28567;-82
2022/07/24 13:39:44;;;;;;;5.67;4.10;;;;;;;;;;4353864;80;28510;-82
2022/07/24 13:45:46;;;;;;;4.97;3.67;;;;;;;;;;4363085;80;28556;-82
2022/07/24 13:51:52;;;;;;;4.90;3.62;;;;;;;;;;4369854;80;28493;-82
2022/07/24 13:57:53;;;;;;;5.05;3.72;;;;;;;;;;4354155;80;28590;-81
2022/07/24 14:04:02;;;;;;;4.40;3.67;;;;;;;;;;4340781;80;28583;-82
2022/07/24 14:10:09;;;;;;;5.42;3.67;;;;;;;;;;4353810;80;28541;-82
2022/07/24 14:16:10;;;;;;;4.17;3.77;;;;;;;;;;4404180;79;28511;-82
2022/07/24 14:22:17;;;;;;;4.20;3.22;;;;;;;;;;4368767;79;28492;-82
2022/07/24 14:28:23;;;;;;;4.37;3.98;;;;;;;;;;4336437;79;28511;-82
2022/07/24 14:34:30;;;;;;;4.45;3.35;;;;;;;;;;4385190;79;28511;-82
2022/07/24 14:40:38;;;;;;;4.92;3.50;;;;;;;;;;4414619;79;28485;-82
2022/07/24 14:46:46;;;;;;;5.33;3.22;;;;;;;;;;4379968;79;28493;-82
2022/07/24 14:52:47;;;;;;;3.22;2.92;;;;;;;;;;4348972;79;28572;-82
2022/07/24 14:58:54;;;;;;;3.90;3.35;;;;;;;;;;4367894;79;28461;-82
2022/07/24 15:05:01;;;;;;;4.70;3.30;;;;;;;;;;4371743;79;28497;-83
2022/07/24 15:11:09;;;;;;;4.35;3.02;;;;;;;;;;4432018;79;28489;-82
2022/07/24 15:17:10;;;;;;;3.72;2.72;;;;;;;;;;4389757;79;28466;-82
2022/07/24 15:23:17;;;;;;;4.22;2.45;;;;;;;;;;4386079;79;28485;-82
2022/07/24 15:29:18;;;;;;;4.05;2.67;;;;;;;;;;4357789;79;28511;-82
2022/07/24 15:35:19;;;;;;;3.27;2.35;;;;;;;;;;4384185;79;28537;-82
2022/07/24 15:41:19;;;;;;;3.05;2.20;;;;;;;;;;4343922;79;28506;-83
2022/07/24 15:47:20;;;;;;;3.00;2.70;;;;;;;;;;4374866;79;28487;-82
2022/07/24 15:53:27;;;;;;;2.72;2.10;;;;;;;;;;4383584;79;28438;-83
2022/07/24 15:59:34;;;;;;;2.62;2.12;;;;;;;;;;4388196;79;28532;-81
2022/07/24 16:05:40;;;;;;;2.33;2.12;;;;;;;;;;4391343;79;28441;-82
2022/07/24 16:11:47;;;;;;;2.85;2.20;;;;;;;;;;4360651;78;28457;-83
2022/07/24 16:17:53;;;;;;;4.35;2.10;;;;;;;;;;4345445;79;28501;-82
2022/07/24 16:24:00;;;;;;;6.10;2.70;;;;;;;;;;4369481;80;28505;-83
2022/07/24 16:30:07;;;;;;;2.27;2.02;;;;;;;;;;4368296;80;28489;-82
2022/07/24 16:36:14;;;;;;;4.85;2.67;;;;;;;;;;4347434;80;28574;-82
2022/07/24 16:42:21;;;;;;;2.95;2.25;;;;;;;;;;4327760;80;28461;-82
2022/07/24 16:48:27;;;;;;;2.80;1.90;;;;;;;;;;4336512;80;28502;-83
2022/07/24 16:54:34;;;;;;;3.42;2.33;;;;;;;;;;4347755;80;28469;-83
2022/07/24 17:00:41;;;;;;;2.50;2.30;;;;;;;;;;4352771;80;28485;-82
2022/07/24 17:06:48;;;;;;;3.17;2.20;;;;;;;;;;4339541;80;28500;-82
2022/07/24 17:12:49;;;;;;;2.70;2.15;;;;;;;;;;4346882;80;28498;-83
2022/07/24 17:18:50;;;;;;;2.50;1.87;;;;;;;;;;4370093;79;28545;-83
2022/07/24 17:24:57;;;;;;;3.05;1.92;;;;;;;;;;4373678;79;28487;-82
2022/07/24 17:30:59;;;;;;;4.35;2.87;;;;;;;;;;4356865;79;28470;-82
2022/07/24 17:37:00;;;;;;;3.87;3.00;;;;;;;;;;4368437;79;28550;-82
2022/07/24 17:43:07;;;;;;;3.83;1.90;;;;;;;;;;4344974;79;28486;-82
2022/07/24 17:49:13;;;;;;;4.42;2.30;;;;;;;;;;4354628;79;28574;-83
2022/07/24 17:55:21;;;;;;;3.70;2.98;;;;;;;;;;4376531;79;28567;-80
2022/07/24 18:01:28;;;;;;;4.05;1.70;;;;;;;;;;4378578;79;28483;-82
2022/07/24 18:07:29;;;;;;;2.47;1.50;;;;;;;;;;4370658;79;28488;-82
2022/07/24 18:13:30;;;;;;;2.45;1.52;;;;;;;;;;4371199;79;28470;-82
2022/07/24 18:19:31;;;;;;;4.12;1.82;;;;;;;;;;4368717;79;28462;-82
2022/07/24 18:25:38;;;;;;;3.40;2.08;;;;;;;;;;4364734;79;28511;-82
2022/07/24 18:31:45;;;;;;;3.67;2.75;;;;;;;;;;4370411;79;28477;-83
2022/07/24 18:37:53;;;;;;;4.30;2.22;;;;;;;;;;4370188;79;28554;-83
2022/07/24 18:43:58;;;;;;;;;;;;;;;;;;4359131;79;28438;-84
2022/07/24 18:50:03;;;;;;;4.45;2.98;;;;;;;;;;4367454;79;20761;-83
2022/07/24 18:56:05;;;;;;;2.50;2.27;;;;;;;;;;4353670;79;28560;-83
2022/07/24 19:02:06;;;;;;;6.25;2.55;;;;;;;;;;4374044;79;28473;-82
2022/07/24 19:08:14;;;;;;;6.00;2.52;;;;;;;;;;4404869;79;28448;-82
2022/07/24 19:14:15;;;;;;;2.77;2.35;;;;;;;;;;4409243;79;28520;-84
2022/07/24 19:20:16;;;;;;;5.47;3.20;;;;;;;;;;4344168;79;28514;-82
2022/07/24 19:26:23;;;;;;;5.03;2.30;;;;;;;;;;4421879;78;28512;-83
2022/07/24 19:32:24;;;;;;;3.80;2.35;;;;;;;;;;4329880;80;28471;-80
2022/07/24 19:38:26;;;;;;;3.92;2.30;;;;;;;;;;4371409;80;29494;-78
2022/07/24 19:44:32;;;;;;;3.62;2.22;;;;;;;;;;4441980;78;28474;-79
2022/07/24 19:50:33;;;;;;;4.92;2.40;;;;;;;;;;4433452;78;28468;-84
2022/07/24 19:56:40;;;;;;;5.15;2.87;;;;;;;;;;4422391;78;28527;-77
2022/07/24 20:02:47;;;;;;;5.62;2.25;;;;;;;;;;4415273;78;28526;-79
2022/07/24 20:08:55;;;;;;;;;;;;;;;;;;4407339;78;28588;-80
2022/07/24 20:14:53;;;;;;;4.80;2.27;;;;;;;;;;4365000;80;20274;-83
2022/07/24 20:20:55;;;;;;;3.65;2.22;;;;;;;;;;4401075;80;28509;-82
2022/07/24 20:27:01;;;;;;;3.10;2.00;;;;;;;;;;4324451;80;28524;-80
2022/07/24 20:33:02;;;;;;;7.83;4.20;;;;;;;;;;4374015;80;28515;-78
2022/07/24 20:39:11;;;;;;;3.92;3.25;;;;;;;;;;4357557;80;28441;-81
2022/07/24 20:45:12;;;;;;;4.42;2.75;;;;;;;;;;4403344;80;28499;-82
2022/07/24 20:51:18;;;;;;;5.10;2.47;;;;;;;;;;4419857;79;28474;-84
2022/07/24 20:57:28;;;;;;;3.65;2.40;;;;;;;;;;4413134;79;28539;-83
2022/07/24 21:03:34;;;;;;;4.25;2.50;;;;;;;;;;4368657;80;28491;-82
2022/07/24 21:09:44;;;;;;;;;;;;;;;;;;4399735;80;28492;-83
2022/07/24 21:15:42;;;;;;;4.58;2.65;;;;;;;;;;4317539;80;28573;-83
2022/07/24 21:21:48;;;;;;;6.78;4.00;;;;;;;;;;4348939;80;28550;-84
2022/07/24 21:27:49;;;;;;;3.98;3.12;;;;;;;;;;4341028;80;28529;-83
2022/07/24 21:33:50;;;;;;;4.25;2.80;;;;;;;;;;4341530;80;28454;-84
2022/07/24 21:39:50;;;;;;;7.22;3.30;;;;;;;;;;4346330;80;28532;-84
2022/07/24 21:45:51;;;;;;;5.22;2.90;;;;;;;;;;4355793;80;28521;-84
2022/07/24 21:51:58;;;;;;;5.37;3.35;;;;;;;;;;4350394;80;28499;-83
2022/07/24 21:58:06;;;;;;;5.35;3.10;;;;;;;;;;4354791;80;28529;-82
2022/07/24 22:04:07;;;;;;;6.20;3.00;;;;;;;;;;4356536;80;28479;-83
2022/07/24 22:10:13;;;;;;;5.65;3.10;;;;;;;;;;4345842;80;28538;-83
2022/07/24 22:16:14;;;;;;;4.28;3.20;;;;;;;;;;4340508;80;28498;-83
2022/07/24 22:22:23;;;;;;;8.68;3.50;;;;;;;;;;4338321;80;28533;-82
2022/07/24 22:28:24;;;;;;;5.35;3.33;;;;;;;;;;4350243;80;28453;-83
2022/07/24 22:34:25;;;;;;;5.97;3.92;;;;;;;;;;4336376;80;28556;-84
2022/07/24 22:40:26;;;;;;;6.72;3.75;;;;;;;;;;4339577;80;28569;-82
2022/07/24 22:46:31;;;;;;;5.75;3.80;;;;;;;;;;4330408;80;28532;-83
2022/07/24 22:52:32;;;;;;;6.15;3.87;;;;;;;;;;4345827;80;28538;-83
2022/07/24 22:58:35;;;;;;;7.33;4.22;;;;;;;;;;4339309;80;28507;-82
2022/07/24 23:04:36;;;;;;;8.45;4.85;;;;;;;;;;4335778;80;28487;-83
2022/07/24 23:10:37;;;;;;;8.98;4.20;;;;;;;;;;4356481;80;28536;-82
2022/07/24 23:16:38;;;;;;;6.67;4.67;;;;;;;;;;4341272;80;28513;-81
2022/07/24 23:22:44;;;;;;;8.30;4.30;;;;;;;;;;4345392;80;28510;-82
2022/07/24 23:28:45;;;;;;;7.60;4.80;;;;;;;;;;4342560;80;28546;-82
2022/07/24 23:34:46;;;;;;;6.97;4.35;;;;;;;;;;4360390;80;28485;-83
2022/07/24 23:40:53;;;;;;;9.93;4.72;;;;;;;;;;4345821;80;28592;-84
2022/07/24 23:47:02;;;;;;;8.43;4.15;;;;;;;;;;4345035;80;28485;-83
2022/07/24 23:53:10;;;;;;;8.38;4.37;;;;;;;;;;4339353;80;28464;-83
2022/07/24 23:59:21;;;;;;;9.10;4.37;;;;;;;;;;4330523;80;28462;-81
